Time;durP1;ratioP1;P1;durP2;ratioP2;P2;SDS_P1;SDS_P2;PMS_P1;PMS_P2;Temp;Humidity;BMP_temperature;BMP_pressure;BME280_temperature;BME280_humidity;BME280_pressure;Samples;Min_cycle;Max_cycle;Signal;HPM_P1;HPM_P2
2021/08/01 00:00:33;;;;;;;4.10;3.80;;;24.30;77.20;;;;;;6152759;23;20032;-64
2021/08/01 00:03:19;;;;;;;7.07;4.53;;;24.20;77.40;;;;;;6147871;23;20041;-64
2021/08/01 00:05:47;;;;;;;5.85;4.35;;;24.00;77.80;;;;;;6148356;23;20048;-63
2021/08/01 00:08:13;;;;;;;5.40;5.00;;;24.00;77.90;;;;;;6151316;23;20024;-64
2021/08/01 00:10:39;;;;;;;10.35;4.43;;;24.10;77.80;;;;;;6149576;23;20125;-64
2021/08/01 00:13:06;;;;;;;5.65;4.10;;;24.10;77.70;;;;;;6149656;23;20060;-64
2021/08/01 00:15:32;;;;;;;9.50;4.97;;;24.00;77.60;;;;;;6149783;23;20026;-64
2021/08/01 00:17:58;;;;;;;5.95;3.67;;;24.20;77.50;;;;;;6149508;23;20026;-64
2021/08/01 00:20:24;;;;;;;7.38;4.80;;;24.20;77.10;;;;;;6148164;23;20057;-64
2021/08/01 00:22:50;;;;;;;10.13;4.40;;;24.30;77.10;;;;;;6149653;23;20021;-64
2021/08/01 00:25:16;;;;;;;6.10;5.55;;;24.30;77.10;;;;;;6149977;23;20093;-64
2021/08/01 00:27:43;;;;;;;4.85;4.07;;;24.20;77.50;;;;;;6149751;23;20021;-64
2021/08/01 00:30:10;;;;;;;6.05;4.55;;;24.20;77.60;;;;;;6149532;23;20042;-64
2021/08/01 00:32:38;;;;;;;9.70;4.25;;;24.10;77.90;;;;;;6149753;23;20490;-64
2021/08/01 00:35:06;;;;;;;6.75;4.47;;;24.10;78.00;;;;;;6150659;23;20017;-64
2021/08/01 00:37:32;;;;;;;5.78;4.72;;;24.10;77.90;;;;;;6153558;23;20097;-63
2021/08/01 00:39:58;;;;;;;7.53;4.57;;;24.10;77.80;;;;;;6151487;23;20021;-64
2021/08/01 00:42:25;;;;;;;7.90;4.55;;;24.10;77.60;;;;;;6151730;23;20028;-64
2021/08/01 00:44:51;;;;;;;12.00;4.40;;;24.10;77.80;;;;;;6151070;23;20040;-64
2021/08/01 00:47:17;;;;;;;10.88;5.10;;;24.00;77.90;;;;;;6151191;23;20444;-64
2021/08/01 00:49:45;;;;;;;8.30;4.40;;;24.00;78.20;;;;;;6151474;23;20041;-64
2021/08/01 00:52:13;;;;;;;11.05;4.82;;;23.80;78.50;;;;;;6152312;23;20092;-64
2021/08/01 00:54:39;;;;;;;13.23;4.07;;;24.00;78.40;;;;;;6151058;23;20021;-64
2021/08/01 00:57:07;;;;;;;14.13;4.50;;;24.00;78.00;;;;;;6149967;23;20053;-64
2021/08/01 00:59:37;;;;;;;7.45;4.60;;;24.10;78.20;;;;;;6149506;23;20478;-64
2021/08/01 01:02:16;;;;;;;10.52;4.78;;;24.10;78.10;;;;;;6151281;23;20091;-64
2021/08/01 01:05:14;;;;;;;12.80;4.72;;;24.10;78.00;;;;;;6151100;23;20049;-63
2021/08/01 01:07:58;;;;;;;6.78;4.35;;;24.10;78.10;;;;;;6142252;23;20407;-64
2021/08/01 01:10:46;;;;;;;7.85;4.40;;;24.10;78.30;;;;;;6151098;23;20518;-64
2021/08/01 01:13:34;;;;;;;14.02;4.88;;;24.10;78.40;;;;;;6151835;23;20045;-64
2021/08/01 01:16:01;;;;;;;10.27;4.10;;;24.10;78.50;;;;;;6151095;23;20523;-64
2021/08/01 01:18:38;;;;;;;9.52;3.78;;;24.10;78.40;;;;;;6149669;23;20017;-64
2021/08/01 01:21:30;;;;;;;6.18;4.03;;;24.10;78.20;;;;;;6149424;23;20037;-64
2021/08/01 01:24:07;;;;;;;9.32;3.92;;;24.20;78.20;;;;;;6149421;23;20021;-64
2021/08/01 01:26:49;;;;;;;8.15;4.70;;;24.10;78.10;;;;;;6174482;23;20088;-64
2021/08/01 01:29:31;;;;;;;13.57;4.38;;;24.00;78.50;;;;;;6151454;23;20025;-64
2021/08/01 01:32:05;;;;;;;9.95;4.45;;;23.90;78.80;;;;;;6150992;23;20045;-64
2021/08/01 01:35:00;;;;;;;6.68;4.18;;;24.00;78.40;;;;;;6151332;23;20028;-64
2021/08/01 01:37:30;;;;;;;6.25;4.30;;;23.90;78.60;;;;;;6174440;23;20507;-64
2021/08/01 01:39:59;;;;;;;12.63;5.10;;;23.90;78.50;;;;;;6150877;23;20808;-64
2021/08/01 01:42:39;;;;;;;9.95;4.60;;;24.00;78.10;;;;;;6150934;23;20024;-64
2021/08/01 01:45:07;;;;;;;10.15;4.38;;;24.10;78.10;;;;;;6150487;23;20045;-64
2021/08/01 01:47:37;;;;;;;8.45;4.20;;;24.10;78.00;;;;;;6153873;23;20060;-64
2021/08/01 01:50:05;;;;;;;9.65;4.47;;;24.10;78.10;;;;;;6149192;23;20144;-64
2021/08/01 01:52:33;;;;;;;8.60;4.13;;;24.00;78.30;;;;;;6154948;23;20025;-64
2021/08/01 01:55:10;;;;;;;7.70;5.35;;;24.00;78.30;;;;;;6149245;23;20447;-64
2021/08/01 01:57:42;;;;;;;20.05;5.60;;;24.00;78.40;;;;;;6174367;23;20056;-64
2021/08/01 02:00:09;;;;;;;7.32;4.10;;;24.00;78.40;;;;;;6152174;23;20213;-64
2021/08/01 02:02:44;;;;;;;9.77;4.65;;;24.00;78.30;;;;;;6150925;23;20385;-64
2021/08/01 02:05:17;;;;;;;4.90;4.32;;;23.90;78.40;;;;;;6152879;23;20021;-64
2021/08/01 02:08:02;;;;;;;9.32;4.28;;;24.00;78.20;;;;;;6150530;23;20045;-64
2021/08/01 02:10:57;;;;;;;8.57;4.30;;;24.10;77.90;;;;;;6150923;23;20018;-64
2021/08/01 02:13:30;;;;;;;5.80;4.72;;;24.10;78.00;;;;;;6149269;23;20057;-63
2021/08/01 02:15:59;;;;;;;10.90;4.82;;;24.10;78.10;;;;;;6153402;23;20032;-63
2021/08/01 02:18:40;;;;;;;6.47;4.00;;;24.00;78.30;;;;;;6150561;23;20100;-64
2021/08/01 02:21:07;;;;;;;10.63;4.82;;;24.00;78.20;;;;;;6176892;23;20304;-64
2021/08/01 02:23:40;;;;;;;8.38;4.80;;;23.90;78.60;;;;;;6150851;23;20617;-64
2021/08/01 02:26:08;;;;;;;10.95;5.25;;;23.80;78.90;;;;;;6154596;23;20041;-64
2021/08/01 02:28:36;;;;;;;17.00;5.03;;;23.80;78.80;;;;;;6150745;23;20125;-63
2021/08/01 02:31:03;;;;;;;10.52;4.40;;;23.70;79.00;;;;;;6149816;23;20026;-64
2021/08/01 02:33:35;;;;;;;13.60;5.60;;;23.60;79.50;;;;;;6152778;23;20073;-64
2021/08/01 02:36:10;;;;;;;8.90;4.72;;;23.50;79.90;;;;;;6148505;23;20021;-64
2021/08/01 02:38:39;;;;;;;6.82;4.70;;;23.40;80.10;;;;;;6148831;23;20096;-64
2021/08/01 02:41:16;;;;;;;8.82;4.82;;;23.30;80.20;;;;;;6151692;23;20025;-64
2021/08/01 02:43:44;;;;;;;10.40;4.45;;;23.10;81.00;;;;;;6150473;23;20037;-64
2021/08/01 02:46:10;;;;;;;9.55;4.82;;;23.00;81.30;;;;;;6153827;23;20031;-64
2021/08/01 02:48:37;;;;;;;10.50;4.70;;;22.90;81.70;;;;;;6176007;23;20017;-64
2021/08/01 02:51:05;;;;;;;10.07;5.00;;;23.00;81.50;;;;;;6148504;23;20096;-63
2021/08/01 02:53:47;;;;;;;14.35;4.55;;;23.00;81.10;;;;;;6173885;23;20013;-64
2021/08/01 02:56:20;;;;;;;9.07;4.72;;;23.00;81.30;;;;;;6148995;23;20060;-64
2021/08/01 02:58:49;;;;;;;12.27;4.72;;;23.10;80.90;;;;;;6177229;23;20080;-64
2021/08/01 03:01:16;;;;;;;12.13;4.90;;;23.10;81.00;;;;;;6150277;23;20120;-64
2021/08/01 03:03:43;;;;;;;11.43;5.13;;;23.20;80.70;;;;;;6149967;23;20514;-64
2021/08/01 03:06:10;;;;;;;13.32;4.82;;;23.20;80.70;;;;;;6153445;23;20100;-64
2021/08/01 03:08:37;;;;;;;9.23;3.78;;;23.20;81.00;;;;;;6150336;23;20470;-64
2021/08/01 03:11:03;;;;;;;13.45;3.95;;;23.20;80.50;;;;;;6149839;23;20104;-64
2021/08/01 03:13:29;;;;;;;9.20;4.75;;;23.40;79.90;;;;;;6152340;23;20484;-64
2021/08/01 03:15:55;;;;;;;6.72;4.00;;;23.70;78.90;;;;;;6149902;23;20112;-64
2021/08/01 03:18:22;;;;;;;10.50;3.78;;;23.90;78.00;;;;;;6172766;23;20459;-64
2021/08/01 03:20:50;;;;;;;8.02;3.80;;;23.90;78.10;;;;;;6150121;23;20360;-64
2021/08/01 03:23:19;;;;;;;5.75;4.00;;;23.70;78.70;;;;;;6149786;23;20072;-64
2021/08/01 03:26:08;;;;;;;14.02;5.03;;;23.70;78.70;;;;;;6149820;23;20080;-64
2021/08/01 03:28:37;;;;;;;9.30;4.65;;;23.90;78.00;;;;;;6150020;23;20423;-64
2021/08/01 03:31:04;;;;;;;11.35;4.95;;;23.90;77.80;;;;;;6172779;23;20539;-64
2021/08/01 03:33:39;;;;;;;11.68;4.80;;;24.00;77.30;;;;;;6148362;23;20104;-64
2021/08/01 03:36:05;;;;;;;10.43;4.45;;;23.80;77.90;;;;;;6148426;23;20112;-63
2021/08/01 03:38:57;;;;;;;5.37;4.03;;;23.70;78.20;;;;;;6126550;23;20104;-64
2021/08/01 03:41:32;;;;;;;8.10;4.40;;;23.60;78.60;;;;;;6149993;23;20026;-64
2021/08/01 03:43:59;;;;;;;12.00;4.68;;;23.70;78.40;;;;;;6172951;23;20094;-64
2021/08/01 03:46:25;;;;;;;14.00;5.32;;;23.70;78.50;;;;;;6151621;23;20460;-64
2021/08/01 03:48:51;;;;;;;11.23;4.82;;;23.70;78.70;;;;;;6149539;23;20071;-64
2021/08/01 03:51:19;;;;;;;8.50;4.20;;;23.50;79.00;;;;;;6149782;23;20487;-64
2021/08/01 03:53:45;;;;;;;15.48;5.00;;;23.60;78.90;;;;;;6150217;23;20025;-64
2021/08/01 03:56:11;;;;;;;11.93;4.68;;;23.60;78.60;;;;;;6150021;23;20076;-64
2021/08/01 03:58:37;;;;;;;12.20;5.25;;;23.70;78.70;;;;;;6149899;23;20014;-64
2021/08/01 04:01:03;;;;;;;15.60;5.18;;;23.60;79.20;;;;;;6149693;23;20416;-64
2021/08/01 04:03:29;;;;;;;10.63;5.07;;;23.50;79.60;;;;;;6149742;23;20463;-64
2021/08/01 04:05:55;;;;;;;10.20;4.78;;;23.40;80.00;;;;;;6149702;23;20056;-64
2021/08/01 04:08:21;;;;;;;11.50;5.32;;;23.40;79.80;;;;;;6149639;23;20460;-64
2021/08/01 04:10:47;;;;;;;8.65;5.45;;;23.50;79.70;;;;;;6152488;23;20407;-64
2021/08/01 04:13:13;;;;;;;10.43;4.72;;;23.50;80.00;;;;;;6151705;23;20068;-64
2021/08/01 04:15:45;;;;;;;13.55;4.57;;;23.40;80.10;;;;;;6154284;23;20029;-64
2021/08/01 04:18:11;;;;;;;6.20;4.30;;;23.50;79.60;;;;;;6151560;23;20399;-64
2021/08/01 04:20:37;;;;;;;8.75;4.80;;;23.70;79.00;;;;;;6151548;23;20092;-64
2021/08/01 04:23:03;;;;;;;10.20;5.68;;;23.90;78.40;;;;;;6151646;23;20072;-64
2021/08/01 04:25:29;;;;;;;9.70;4.90;;;24.00;78.10;;;;;;6151585;23;20033;-64
2021/08/01 04:27:56;;;;;;;13.18;5.13;;;24.10;78.10;;;;;;6151779;23;20052;-64
2021/08/01 04:30:22;;;;;;;8.60;5.07;;;24.00;78.20;;;;;;6154059;23;20018;-65
2021/08/01 04:32:49;;;;;;;10.25;4.50;;;23.90;78.50;;;;;;6151782;23;20084;-64
2021/08/01 04:35:15;;;;;;;6.70;4.80;;;23.90;78.80;;;;;;6151567;23;20082;-64
2021/08/01 04:37:41;;;;;;;6.72;4.90;;;24.00;78.80;;;;;;6151498;23;20026;-65
2021/08/01 04:40:08;;;;;;;10.65;4.68;;;24.00;78.60;;;;;;6151627;23;20017;-64
2021/08/01 04:42:34;;;;;;;10.95;4.82;;;24.00;78.60;;;;;;6151567;23;20561;-64
2021/08/01 04:45:00;;;;;;;12.82;5.97;;;23.90;79.00;;;;;;6154304;23;20052;-64
2021/08/01 04:47:26;;;;;;;9.55;5.05;;;23.80;79.40;;;;;;6151447;23;20342;-64
2021/08/01 04:49:52;;;;;;;15.15;6.15;;;23.80;79.20;;;;;;6151773;23;20076;-64
2021/08/01 04:52:19;;;;;;;14.73;5.13;;;23.90;79.20;;;;;;6151913;23;20022;-64
2021/08/01 04:54:46;;;;;;;9.38;5.25;;;23.90;79.30;;;;;;6152987;23;20035;-64
2021/08/01 04:57:12;;;;;;;8.60;4.95;;;24.00;79.20;;;;;;6150961;23;20056;-64
2021/08/01 04:59:38;;;;;;;7.30;5.22;;;24.10;78.70;;;;;;6154101;23;20105;-64
2021/08/01 05:02:04;;;;;;;10.35;5.72;;;24.10;78.60;;;;;;6151490;23;20017;-64
2021/08/01 05:04:31;;;;;;;5.65;5.15;;;24.10;78.90;;;;;;6150935;23;20475;-64
2021/08/01 05:06:59;;;;;;;8.02;5.80;;;23.80;79.40;;;;;;6154509;23;20464;-64
2021/08/01 05:09:24;;;;;;;11.90;5.63;;;23.80;79.50;;;;;;6152987;23;20043;-64
2021/08/01 05:11:51;;;;;;;6.13;4.78;;;23.90;79.00;;;;;;6151248;23;20041;-65
2021/08/01 05:14:17;;;;;;;12.43;5.78;;;24.10;78.90;;;;;;6154251;23;20356;-64
2021/08/01 05:16:43;;;;;;;9.32;5.53;;;24.10;78.70;;;;;;6151320;23;20058;-64
2021/08/01 05:19:09;;;;;;;6.30;5.10;;;24.20;78.50;;;;;;6150528;23;20111;-64
2021/08/01 05:21:36;;;;;;;10.05;5.63;;;24.20;78.50;;;;;;6153988;23;20049;-64
2021/08/01 05:24:02;;;;;;;13.05;6.57;;;24.20;78.30;;;;;;6152971;23;20459;-64
2021/08/01 05:26:28;;;;;;;13.57;5.95;;;24.10;78.80;;;;;;6150801;23;20440;-64
2021/08/01 05:28:54;;;;;;;13.68;6.43;;;24.00;79.20;;;;;;6154738;23;20021;-65
2021/08/01 05:31:19;;;;;;;11.45;6.20;;;24.10;79.10;;;;;;6151065;23;20073;-65
2021/08/01 05:33:45;;;;;;;10.70;6.45;;;24.00;79.50;;;;;;6151159;23;20049;-64
2021/08/01 05:36:12;;;;;;;11.93;6.85;;;23.90;79.70;;;;;;6154443;23;20028;-64
2021/08/01 05:38:38;;;;;;;11.43;6.82;;;23.80;80.00;;;;;;6151054;23;20021;-64
2021/08/01 05:41:05;;;;;;;10.70;5.95;;;23.90;80.20;;;;;;6150861;23;20061;-64
2021/08/01 05:43:31;;;;;;;10.40;6.45;;;23.80;80.50;;;;;;6154377;23;20530;-64
2021/08/01 05:45:57;;;;;;;10.70;5.75;;;23.90;80.30;;;;;;6153411;23;20120;-64
2021/08/01 05:48:24;;;;;;;18.15;5.78;;;23.90;80.30;;;;;;6150877;23;20099;-65
2021/08/01 05:50:50;;;;;;;12.93;7.45;;;24.10;80.20;;;;;;6154372;23;20025;-64
2021/08/01 05:53:20;;;;;;;9.18;5.70;;;24.10;79.90;;;;;;6153439;23;20021;-64
2021/08/01 05:55:49;;;;;;;17.90;7.45;;;24.00;80.30;;;;;;6150795;23;20041;-64
2021/08/01 05:58:15;;;;;;;9.27;5.70;;;24.10;80.20;;;;;;6154666;23;20021;-64
2021/08/01 06:00:41;;;;;;;13.73;6.30;;;24.20;79.80;;;;;;6153115;23;20507;-64
2021/08/01 06:03:07;;;;;;;10.07;6.43;;;24.30;79.70;;;;;;6150906;23;20041;-64
2021/08/01 06:05:33;;;;;;;12.25;5.97;;;24.40;79.80;;;;;;6154347;23;20088;-64
2021/08/01 06:07:59;;;;;;;7.97;5.88;;;24.40;79.70;;;;;;6153340;23;20464;-64
2021/08/01 06:10:25;;;;;;;12.15;5.28;;;24.50;79.40;;;;;;6150341;23;20057;-64
2021/08/01 06:12:51;;;;;;;8.43;5.82;;;24.70;78.90;;;;;;6150699;23;20032;-64
2021/08/01 06:15:17;;;;;;;10.40;5.95;;;24.70;79.00;;;;;;6153032;23;20032;-66
2021/08/01 06:17:44;;;;;;;10.90;6.00;;;24.70;79.60;;;;;;6150497;23;20057;-66
2021/08/01 06:20:11;;;;;;;15.23;6.18;;;24.70;79.50;;;;;;6150511;23;20024;-65
2021/08/01 06:22:37;;;;;;;6.13;5.60;;;24.70;79.10;;;;;;6152849;23;20093;-66
2021/08/01 06:25:04;;;;;;;11.38;5.35;;;24.90;79.00;;;;;;6150333;23;20041;-65
2021/08/01 06:27:30;;;;;;;9.70;5.72;;;25.00;78.60;;;;;;6150757;23;20026;-64
2021/08/01 06:29:56;;;;;;;11.10;6.65;;;25.20;77.60;;;;;;6151964;23;20021;-64
2021/08/01 06:32:22;;;;;;;8.60;5.85;;;25.20;78.10;;;;;;6149743;23;20068;-65
2021/08/01 06:34:48;;;;;;;5.28;4.65;;;25.10;78.50;;;;;;6150425;23;20349;-65
2021/08/01 06:37:14;;;;;;;17.42;6.07;;;25.20;77.70;;;;;;6153634;23;20048;-64
2021/08/01 06:39:43;;;;;;;7.88;5.60;;;25.40;77.30;;;;;;6150245;23;20288;-64
2021/08/01 06:42:09;;;;;;;9.98;6.13;;;25.50;77.40;;;;;;6150438;23;20025;-65
2021/08/01 06:44:35;;;;;;;11.45;5.97;;;25.40;78.00;;;;;;6152365;23;20028;-65
2021/08/01 06:47:01;;;;;;;8.45;5.60;;;25.30;78.20;;;;;;6150060;23;20057;-69
2021/08/01 06:49:28;;;;;;;7.40;6.20;;;25.30;78.30;;;;;;6149780;23;20049;-69
2021/08/01 06:51:54;;;;;;;11.80;6.70;;;25.20;78.70;;;;;;6176298;23;20458;-69
2021/08/01 06:54:20;;;;;;;17.02;6.80;;;25.20;79.20;;;;;;6149807;23;20052;-70
2021/08/01 06:56:46;;;;;;;7.30;6.28;;;25.00;78.60;;;;;;6150480;23;20032;-72
2021/08/01 06:59:12;;;;;;;7.10;6.40;;;25.10;79.20;;;;;;6152344;23;20017;-69
2021/08/01 07:01:39;;;;;;;6.60;5.97;;;25.20;78.90;;;;;;6149338;23;20209;-75
2021/08/01 07:04:06;;;;;;;9.95;5.68;;;25.10;78.50;;;;;;6152661;23;20025;-77
2021/08/01 07:06:32;;;;;;;6.93;5.65;;;25.10;78.50;;;;;;6148567;23;20025;-71
2021/08/01 07:08:58;;;;;;;18.92;5.47;;;25.10;78.50;;;;;;6123387;23;20510;-70
2021/08/01 07:11:24;;;;;;;10.48;5.68;;;25.10;78.40;;;;;;6150911;23;20021;-65
2021/08/01 07:13:50;;;;;;;10.30;5.82;;;25.20;78.10;;;;;;6150627;23;20029;-62
2021/08/01 07:16:16;;;;;;;9.07;5.72;;;25.20;78.30;;;;;;6173079;23;20053;-62
2021/08/01 07:18:42;;;;;;;10.15;4.80;;;25.20;78.50;;;;;;6147311;23;20475;-65
2021/08/01 07:21:07;;;;;;;11.50;5.57;;;25.40;76.90;;;;;;6150001;23;20025;-64
2021/08/01 07:23:33;;;;;;;14.88;5.28;;;25.60;77.20;;;;;;6150010;23;20092;-67
2021/08/01 07:25:59;;;;;;;15.60;5.88;;;25.70;76.10;;;;;;6149645;23;20060;-68
2021/08/01 07:28:25;;;;;;;7.28;5.68;;;25.80;77.30;;;;;;6148004;23;20426;-61
2021/08/01 07:30:52;;;;;;;6.80;4.82;;;25.80;77.40;;;;;;6147309;23;20025;-61
2021/08/01 07:33:19;;;;;;;4.93;4.53;;;25.80;77.10;;;;;;6149365;23;20025;-63
2021/08/01 07:35:46;;;;;;;10.80;5.40;;;25.90;75.90;;;;;;6148588;23;20021;-66
2021/08/01 07:38:12;;;;;;;8.90;4.85;;;26.00;76.20;;;;;;6149597;23;20049;-62
2021/08/01 07:40:39;;;;;;;12.32;5.15;;;25.90;75.70;;;;;;6172551;23;20062;-62
2021/08/01 07:43:05;;;;;;;9.27;5.57;;;26.00;75.70;;;;;;6153318;23;20021;-63
2021/08/01 07:45:34;;;;;;;9.77;5.22;;;26.10;75.60;;;;;;6149625;23;20021;-62
2021/08/01 07:48:01;;;;;;;7.05;5.00;;;26.10;75.50;;;;;;6149532;23;20543;-67
2021/08/01 07:50:40;;;;;;;21.27;5.88;;;26.10;75.30;;;;;;6149796;23;20013;-66
2021/08/01 07:53:06;;;;;;;16.42;6.32;;;26.20;74.80;;;;;;6149476;23;20057;-67
2021/08/01 07:55:32;;;;;;;25.15;8.40;;;26.30;74.60;;;;;;6149548;23;20028;-66
2021/08/01 07:57:58;;;;;;;18.67;7.57;;;26.30;74.50;;;;;;6149892;23;20460;-66
2021/08/01 08:00:24;;;;;;;27.42;7.38;;;26.30;74.50;;;;;;6149928;23;20103;-66
2021/08/01 08:02:50;;;;;;;20.60;6.70;;;26.30;74.50;;;;;;6149567;23;20021;-66
2021/08/01 08:05:16;;;;;;;17.13;6.63;;;26.30;74.50;;;;;;6150138;23;20359;-66
2021/08/01 08:07:42;;;;;;;15.75;6.57;;;26.30;74.50;;;;;;6149479;23;20474;-67
2021/08/01 08:10:09;;;;;;;12.55;6.50;;;26.30;74.60;;;;;;6151500;23;20021;-66
2021/08/01 08:12:35;;;;;;;14.32;6.43;;;26.30;74.60;;;;;;6149648;23;20413;-66
2021/08/01 08:15:08;;;;;;;14.20;6.65;;;26.30;74.50;;;;;;6149724;23;20518;-66
2021/08/01 08:17:34;;;;;;;24.27;7.03;;;26.30;74.50;;;;;;6148502;23;20031;-66
2021/08/01 08:20:02;;;;;;;20.17;6.93;;;26.30;75.00;;;;;;6151350;23;20052;-67
2021/08/01 08:22:28;;;;;;;13.77;6.32;;;26.30;74.40;;;;;;6149752;23;20095;-66
2021/08/01 08:24:54;;;;;;;16.27;7.40;;;26.30;74.30;;;;;;6149646;23;20025;-66
2021/08/01 08:27:21;;;;;;;11.05;6.88;;;26.30;74.30;;;;;;6152182;23;20025;-67
2021/08/01 08:29:47;;;;;;;12.18;7.22;;;26.30;74.30;;;;;;6148357;23;20048;-67
2021/08/01 08:32:12;;;;;;;14.80;7.25;;;26.30;74.20;;;;;;6153118;23;20026;-67
2021/08/01 08:34:38;;;;;;;13.95;7.28;;;26.30;74.30;;;;;;6149654;23;20025;-66
2021/08/01 08:37:05;;;;;;;19.30;8.05;;;26.30;74.20;;;;;;6149420;23;20041;-67
2021/08/01 08:39:30;;;;;;;15.25;7.13;;;26.30;74.20;;;;;;6152718;23;20096;-67
2021/08/01 08:41:59;;;;;;;13.63;6.88;;;26.30;74.20;;;;;;6149953;23;20537;-65
2021/08/01 08:44:26;;;;;;;17.42;7.82;;;26.40;74.30;;;;;;6149720;23;20028;-65
2021/08/01 08:46:53;;;;;;;9.70;6.85;;;26.40;74.30;;;;;;6151791;23;20021;-66
2021/08/01 08:49:21;;;;;;;15.50;7.32;;;26.40;74.30;;;;;;6149660;23;20147;-66
2021/08/01 08:51:50;;;;;;;13.63;7.43;;;26.30;74.20;;;;;;6149473;23;20048;-65
2021/08/01 08:54:23;;;;;;;7.80;6.30;;;26.30;74.20;;;;;;6149121;23;20371;-66
2021/08/01 08:56:51;;;;;;;15.18;7.20;;;26.30;74.20;;;;;;6150916;23;20057;-66
2021/08/01 08:59:21;;;;;;;10.60;7.22;;;26.40;74.30;;;;;;6151440;23;20021;-66
2021/08/01 09:01:47;;;;;;;8.18;7.38;;;26.40;74.20;;;;;;6151403;23;20083;-65
2021/08/01 09:04:13;;;;;;;8.18;6.85;;;26.30;74.20;;;;;;6150967;23;20471;-65
2021/08/01 09:06:39;;;;;;;7.80;7.03;;;26.40;74.30;;;;;;6151506;23;20021;-65
2021/08/01 09:09:05;;;;;;;7.53;6.75;;;26.40;74.30;;;;;;6151372;23;20021;-65
2021/08/01 09:11:32;;;;;;;10.60;7.30;;;26.40;74.40;;;;;;6151204;23;20096;-66
2021/08/01 09:13:58;;;;;;;8.05;7.28;;;26.40;74.40;;;;;;6151294;23;20072;-66
2021/08/01 09:16:45;;;;;;;8.38;7.13;;;26.40;74.50;;;;;;6154487;23;20459;-65
2021/08/01 09:19:32;;;;;;;8.73;6.85;;;26.30;74.50;;;;;;6150703;23;20099;-65
2021/08/01 09:22:18;;;;;;;8.38;7.53;;;26.40;74.60;;;;;;6151190;23;20389;-66
2021/08/01 09:24:47;;;;;;;8.52;7.07;;;26.40;74.70;;;;;;6174620;23;20401;-65
2021/08/01 09:27:33;;;;;;;8.15;7.45;;;26.40;74.60;;;;;;6150788;23;20535;-65
2021/08/01 09:30:00;;;;;;;8.15;7.30;;;26.40;74.70;;;;;;6150965;23;20028;-65
2021/08/01 09:32:30;;;;;;;7.88;7.15;;;26.40;74.70;;;;;;6151201;23;20463;-65
2021/08/01 09:34:56;;;;;;;12.25;7.20;;;26.40;74.70;;;;;;6153421;23;20534;-66
2021/08/01 09:37:32;;;;;;;9.35;7.32;;;26.40;74.60;;;;;;6150975;23;20060;-65
2021/08/01 09:40:29;;;;;;;9.98;6.90;;;26.40;74.60;;;;;;6154030;23;20083;-66
2021/08/01 09:43:05;;;;;;;9.57;7.55;;;26.40;74.60;;;;;;6138560;23;20049;-66
2021/08/01 09:45:32;;;;;;;7.80;6.93;;;26.40;74.50;;;;;;6150797;23;20028;-66
2021/08/01 09:48:14;;;;;;;9.48;7.57;;;26.40;74.50;;;;;;6174002;23;20443;-66
2021/08/01 09:51:07;;;;;;;7.93;7.18;;;26.40;74.50;;;;;;6152324;23;20596;-66
2021/08/01 09:53:34;;;;;;;8.65;7.40;;;26.40;74.50;;;;;;6150458;23;20588;-66
2021/08/01 09:56:18;;;;;;;8.57;7.15;;;26.50;74.40;;;;;;6149532;23;20029;-66
2021/08/01 09:58:46;;;;;;;7.57;6.95;;;26.50;74.50;;;;;;6151157;23;20464;-66
2021/08/01 10:01:12;;;;;;;8.10;7.35;;;26.50;74.40;;;;;;6174375;23;20033;-66
2021/08/01 10:03:47;;;;;;;7.85;7.30;;;26.50;74.40;;;;;;6150909;23;20018;-66
2021/08/01 10:06:15;;;;;;;7.30;6.50;;;26.50;74.40;;;;;;6150017;23;20467;-66
2021/08/01 10:08:49;;;;;;;8.23;7.40;;;26.50;74.40;;;;;;6150554;23;20022;-66
2021/08/01 10:11:20;;;;;;;8.50;7.47;;;26.50;74.40;;;;;;6150445;23;20048;-65
2021/08/01 10:13:49;;;;;;;7.60;6.90;;;26.50;74.40;;;;;;6150761;23;20021;-65
2021/08/01 10:16:15;;;;;;;7.80;7.13;;;26.50;74.30;;;;;;6150823;23;20025;-65
2021/08/01 10:18:44;;;;;;;8.45;7.30;;;26.50;74.30;;;;;;6150538;23;20104;-65
2021/08/01 10:21:22;;;;;;;8.02;7.43;;;26.50;74.30;;;;;;6151071;23;20072;-65
2021/08/01 10:23:52;;;;;;;8.00;7.40;;;26.50;74.30;;;;;;6150792;23;20045;-65
2021/08/01 10:26:21;;;;;;;8.43;7.53;;;26.50;74.30;;;;;;6152364;23;20032;-66
2021/08/01 10:29:01;;;;;;;11.77;7.57;;;26.50;74.30;;;;;;6150949;23;20027;-65
2021/08/01 10:31:34;;;;;;;8.40;7.63;;;26.50;74.40;;;;;;6150522;23;20033;-65
2021/08/01 10:34:18;;;;;;;;;;;26.50;74.30;;;;;;6151172;23;20021;-65
2021/08/01 10:36:48;;;;;;;8.52;7.72;;;26.50;74.30;;;;;;6148572;23;19939;-65
2021/08/01 10:39:18;;;;;;;8.93;7.32;;;26.50;74.30;;;;;;6148656;23;20032;-65
2021/08/01 10:41:45;;;;;;;7.72;7.05;;;26.50;74.30;;;;;;6149869;23;20029;-66
2021/08/01 10:44:12;;;;;;;8.32;7.47;;;26.50;74.30;;;;;;6150106;23;20025;-65
2021/08/01 10:46:40;;;;;;;8.15;7.45;;;26.50;74.30;;;;;;6150444;23;20104;-65
2021/08/01 10:49:09;;;;;;;8.15;7.35;;;26.50;74.30;;;;;;6150021;23;20021;-65
2021/08/01 10:51:36;;;;;;;8.27;7.55;;;26.50;74.30;;;;;;6150434;23;20064;-65
2021/08/01 10:54:26;;;;;;;10.32;8.30;;;26.50;74.30;;;;;;6150208;23;20109;-65
2021/08/01 10:57:13;;;;;;;8.65;7.85;;;26.50;74.30;;;;;;6142112;23;20463;-65
2021/08/01 10:59:45;;;;;;;8.57;7.78;;;26.60;74.30;;;;;;6154201;23;20032;-65
2021/08/01 11:02:17;;;;;;;;;;;26.50;74.10;;;;;;6150900;23;20108;-66
2021/08/01 11:04:46;;;;;;;7.55;6.85;;;26.60;74.30;;;;;;6154261;23;19917;-61
2021/08/01 11:07:27;;;;;;;8.80;5.88;;;26.50;72.30;;;;;;6150416;23;20049;-62
2021/08/01 11:10:10;;;;;;;6.53;5.47;;;26.50;73.10;;;;;;6150143;23;20021;-65
2021/08/01 11:12:44;;;;;;;7.18;5.85;;;26.40;71.90;;;;;;6149700;23;20052;-62
2021/08/01 11:15:17;;;;;;;5.75;5.32;;;26.40;72.70;;;;;;6152823;23;20021;-67
2021/08/01 11:17:46;;;;;;;5.13;4.63;;;26.50;72.20;;;;;;6149975;23;20065;-63
2021/08/01 11:20:15;;;;;;;6.60;4.75;;;26.50;72.30;;;;;;6150135;23;20021;-63
2021/08/01 11:22:44;;;;;;;8.30;4.55;;;26.50;72.00;;;;;;6150398;23;20752;-64
2021/08/01 11:25:30;;;;;;;6.15;5.03;;;26.50;71.50;;;;;;6147285;23;20048;-63
2021/08/01 11:28:29;;;;;;;4.93;4.72;;;26.60;71.50;;;;;;6149689;23;20049;-61
2021/08/01 11:30:58;;;;;;;6.03;5.38;;;26.70;71.30;;;;;;6149822;23;20476;-62
2021/08/01 11:33:31;;;;;;;5.43;5.10;;;26.70;71.70;;;;;;6149876;23;20534;-62
2021/08/01 11:36:25;;;;;;;8.38;5.25;;;26.70;71.10;;;;;;6149261;23;20045;-66
2021/08/01 11:38:54;;;;;;;5.30;4.97;;;26.60;71.60;;;;;;6147687;23;20472;-69
2021/08/01 11:41:26;;;;;;;5.03;4.63;;;26.60;71.30;;;;;;6149508;23;20053;-68
2021/08/01 11:43:57;;;;;;;6.55;4.88;;;26.70;71.10;;;;;;6150716;23;20080;-68
2021/08/01 11:46:24;;;;;;;10.32;4.93;;;26.70;71.40;;;;;;6149473;23;20092;-70
2021/08/01 11:49:00;;;;;;;6.95;5.10;;;26.70;71.40;;;;;;6149655;23;20041;-70
2021/08/01 11:51:28;;;;;;;8.40;5.05;;;26.70;71.40;;;;;;6149667;23;20060;-70
2021/08/01 11:53:55;;;;;;;4.82;4.38;;;26.70;71.40;;;;;;6149561;23;20088;-70
2021/08/01 11:56:21;;;;;;;5.57;4.45;;;26.70;71.40;;;;;;6152399;23;20025;-70
2021/08/01 11:58:53;;;;;;;4.70;4.32;;;26.70;71.40;;;;;;6148881;23;20417;-69
2021/08/01 12:01:23;;;;;;;6.53;4.70;;;26.70;71.40;;;;;;6152722;23;20483;-68
2021/08/01 12:03:50;;;;;;;5.28;4.43;;;26.80;71.50;;;;;;6149303;23;20041;-68
2021/08/01 12:06:36;;;;;;;5.30;4.80;;;26.80;71.50;;;;;;6153767;23;20492;-67
2021/08/01 12:09:37;;;;;;;4.75;4.32;;;26.80;71.50;;;;;;6144719;23;20104;-66
2021/08/01 12:12:05;;;;;;;5.35;4.85;;;26.80;71.40;;;;;;6116932;23;20036;-69
2021/08/01 12:14:41;;;;;;;5.32;4.82;;;26.80;71.50;;;;;;6149237;23;20031;-68
2021/08/01 12:17:11;;;;;;;6.20;4.90;;;26.80;71.60;;;;;;6149594;23;20028;-71
2021/08/01 12:19:45;;;;;;;5.63;3.90;;;26.70;71.60;;;;;;6149062;23;20047;-66
2021/08/01 12:22:14;;;;;;;8.57;4.20;;;26.70;71.80;;;;;;6151964;23;20460;-63
2021/08/01 12:24:48;;;;;;;12.40;4.32;;;26.60;72.40;;;;;;6150100;23;20048;-64
2021/08/01 12:27:27;;;;;;;4.97;4.50;;;26.50;72.50;;;;;;6152669;23;20049;-67
2021/08/01 12:30:07;;;;;;;7.10;4.50;;;26.50;72.50;;;;;;6148778;23;20161;-63
2021/08/01 12:32:42;;;;;;;4.13;3.80;;;26.60;72.60;;;;;;6152404;23;20403;-66
2021/08/01 12:35:14;;;;;;;6.28;4.22;;;26.60;73.00;;;;;;6151506;23;20098;-69
2021/08/01 12:38:32;;;;;;;4.33;3.60;;;26.50;73.10;;;;;;6151702;23;20028;-66
2021/08/01 12:40:51;;;;;;;10.57;4.25;;;26.50;74.50;;;;;;6149946;23;20570;-62
2021/08/01 12:43:29;;;;;;;6.80;3.72;;;26.10;78.40;;;;;;6151595;23;20048;-61
2021/08/01 12:45:56;;;;;;;10.73;4.72;;;26.00;78.70;;;;;;6149529;23;20049;-61
2021/08/01 12:48:27;;;;;;;3.67;3.47;;;26.10;78.50;;;;;;6150463;23;20025;-61
2021/08/01 12:50:59;;;;;;;7.05;3.63;;;26.00;78.10;;;;;;6154003;23;20018;-64
2021/08/01 12:53:27;;;;;;;4.75;3.88;;;26.00;78.10;;;;;;6151154;23;20032;-61
2021/08/01 12:55:59;;;;;;;3.70;3.40;;;26.10;78.90;;;;;;6154334;23;20075;-60
2021/08/01 12:58:35;;;;;;;3.40;3.13;;;25.50;80.90;;;;;;6151114;23;20024;-61